All
Bronzewing Airport (Lake Darlot Western Australia) YBWG Weather
There is no TAF data available at YBWG or any nearby airports.
There is no METAR data available at YBWG. Showing METAR data for YMNE (30 mi W).
Recent WME METAR history (no data for YBWG)
| Date | Time (AWST) | Flight Rules | Wind Dir. | Speed | Type | Height AGL (ft) | Visibility | Temp (°C) | Temp (°F) | Dew Point (°C) | Dew Point (°F) | Rel. Humid. | Pressure | Density Altitude | Remarks |
|---|---|---|---|---|---|---|---|---|---|---|---|---|---|---|---|
| 09-May | 02:00PM | VFR | 90° | 9 kt | 10000 meters | 20° | 68° | -1° | 30° | 24% | 1024 mb | 2,311 ft | |||
| 09-May | 01:00PM | VFR | 70° | 11 kt | 10000 meters | 19° | 66° | -1° | 30° | 26% | 1025 mb | 2,161 ft | |||
| 09-May | 12:00PM | VFR | 90° | 9 kt | 10000 meters | 18° | 64° | 0° | 32° | 30% | 1026 mb | 2,012 ft | |||
| 09-May | 11:00AM | VFR | 70° | 12 kt | 10000 meters | 16° | 60° | 2° | 35° | 39% | 1027 mb | 1,742 ft | |||
| 09-May | 10:00AM | VFR | 70° | 14 kt | 10000 meters | 15° | 59° | 2° | 35° | 41% | 1028 mb | 1,593 ft | |||
| 09-May | 09:00AM | VFR | 90° | 13 kt | 10000 meters | 13° | 55° | 3° | 37° | 51% | 1028 mb | 1,353 ft | |||
| 09-May | 08:00AM | VFR | 100° | 13 kt | 10000 meters | 11° | 51° | 4° | 39° | 62% | 1028 mb | 1,113 ft | |||
| 09-May | 07:00AM | VFR | 110° | 8 kt | 10000 meters | 9° | 48° | 3° | 37° | 66% | 1028 mb | 873 ft | |||
| 09-May | 06:00AM | VFR | 120° | 7 kt | 10000 meters | 8° | 46° | 3° | 37° | 71% | 1027 mb | 782 ft | |||
| 09-May | 05:00AM | VFR | 110° | 7 kt | 10000 meters | 8° | 46° | 3° | 37° | 71% | 1027 mb | 782 ft | |||
| 09-May | 04:00AM | VFR | 120° | 7 kt | 10000 meters | 8° | 46° | 2° | 35° | 66% | 1027 mb | 782 ft | |||
| 09-May | 03:00AM | VFR | 110° | 7 kt | 10000 meters | 8° | 46° | 2° | 35° | 66% | 1027 mb | 782 ft | |||
| 09-May | 02:00AM | VFR | 110° | 6 kt | 10000 meters | 10° | 50° | 2° | 35° | 57% | 1027 mb | 1,022 ft | |||
| 09-May | 01:00AM | VFR | 110° | 7 kt | 10000 meters | 12° | 53° | 2° | 35° | 50% | 1027 mb | 1,262 ft | |||
| 09-May | 12:00AM | VFR | 100° | 9 kt | 10000 meters | 13° | 55° | 2° | 35° | 47% | 1027 mb | 1,382 ft | |||
| 08-May | 11:00PM | VFR | 110° | 9 kt | 10000 meters | 13° | 55° | 2° | 35° | 47% | 1027 mb | 1,382 ft | |||
| 08-May | 10:00PM | VFR | 110° | 8 kt | 10000 meters | 13° | 55° | 1° | 33° | 44% | 1027 mb | 1,382 ft | |||
| 08-May | 09:00PM | VFR | 110° | 9 kt | 10000 meters | 15° | 59° | 1° | 33° | 39% | 1027 mb | 1,622 ft | |||
| 08-May | 08:00PM | VFR | 130° | 7 kt | 10000 meters | 15° | 59° | 1° | 33° | 39% | 1027 mb | 1,622 ft | |||
| 08-May | 07:00PM | VFR | 120° | 8 kt | 10000 meters | 16° | 60° | 1° | 33° | 36% | 1026 mb | 1,772 ft | |||
| 08-May | 06:00PM | VFR | 130° | 10 kt | 10000 meters | 18° | 64° | 3° | 37° | 37% | 1026 mb | 2,012 ft | |||
| 08-May | 05:00PM | VFR | 110° | 13 kt | 10000 meters | 19° | 66° | 2° | 35° | 32% | 1025 mb | 2,161 ft | |||
| 08-May | 04:00PM | VFR | 120° | 13 kt | 10000 meters | 20° | 68° | 3° | 37° | 32% | 1025 mb | 2,281 ft | |||
| 08-May | 03:00PM | VFR | 120° | 13 kt | 10000 meters | 20° | 68° | 4° | 39° | 35% | 1025 mb | 2,281 ft |
Login
| Your browser is unsupported. upgrade your browser |
